Time;durP1;ratioP1;P1;durP2;ratioP2;P2;SDS_P1;SDS_P2;PMS_P1;PMS_P2;Temp;Humidity;BMP_temperature;BMP_pressure;BME280_temperature;BME280_humidity;BME280_pressure;Samples;Min_cycle;Max_cycle;Signal;HPM_P1;HPM_P2
2022/11/29 00:02:08;;;;;;;7.60;7.00;;;;;;;7.20;97.52;99895.47;5095772;28;20188;-64
2022/11/29 00:04:34;;;;;;;8.03;7.43;;;;;;;7.22;97.34;99892.66;5095848;28;20191;-64
2022/11/29 00:07:01;;;;;;;7.80;7.20;;;;;;;7.23;97.41;99894.31;5085985;28;20661;-64
2022/11/29 00:09:29;;;;;;;7.33;6.63;;;;;;;7.24;97.68;99898.59;5075558;28;20568;-63
2022/11/29 00:12:14;;;;;;;6.77;6.27;;;;;;;7.16;97.39;99902.06;5075429;28;20252;-63
2022/11/29 00:14:41;;;;;;;7.23;6.63;;;;;;;7.09;97.05;99902.88;5075510;28;20647;-64
2022/11/29 00:17:08;;;;;;;7.63;7.17;;;;;;;6.99;96.83;99896.94;5076151;28;20188;-64
2022/11/29 00:19:36;;;;;;;7.67;7.00;;;;;;;6.90;96.55;99893.44;5075401;28;20222;-63
2022/11/29 00:22:04;;;;;;;7.70;7.10;;;;;;;6.86;97.37;99896.59;5075191;28;20235;-63
2022/11/29 00:24:33;;;;;;;7.60;6.83;;;;;;;6.80;97.30;99891.94;5075442;28;20196;-63
2022/11/29 00:27:01;;;;;;;6.93;6.53;;;;;;;6.74;98.39;99892.59;5076360;28;20191;-64
2022/11/29 00:29:28;;;;;;;7.30;6.80;;;;;;;6.68;98.01;99899.34;5077979;28;20248;-63
2022/11/29 00:31:55;;;;;;;8.00;7.30;;;;;;;6.55;97.96;99871.75;5095268;28;20287;-63
2022/11/29 00:34:22;;;;;;;6.60;6.20;;;;;;;6.62;98.99;99892.06;5095644;28;20191;-63
2022/11/29 00:36:48;;;;;;;7.27;6.63;;;;;;;6.35;98.68;99844.84;5095542;28;20213;-65
2022/11/29 00:39:15;;;;;;;7.63;6.93;;;;;;;6.62;99.95;99886.78;5096589;28;20191;-64
2022/11/29 00:41:44;;;;;;;6.90;6.37;;;;;;;6.68;100.00;99887.97;5095216;28;20659;-64
2022/11/29 00:44:11;;;;;;;7.27;6.77;;;;;;;6.71;100.00;99883.19;5095313;28;20202;-63
2022/11/29 00:46:38;;;;;;;7.73;7.20;;;;;;;6.81;100.00;99888.34;5095607;28;20570;-63
2022/11/29 00:49:05;;;;;;;6.40;5.80;;;;;;;6.86;100.00;99875.47;5095236;28;20322;-63
2022/11/29 00:51:32;;;;;;;6.90;6.40;;;;;;;6.94;99.78;99875.47;5095648;28;20191;-64
2022/11/29 00:53:58;;;;;;;6.93;6.43;;;;;;;6.94;98.47;99878.13;5094879;28;20248;-63
2022/11/29 00:56:25;;;;;;;6.07;5.67;;;;;;;6.91;98.13;99875.78;5094927;28;20729;-63
2022/11/29 00:58:53;;;;;;;6.83;6.23;;;;;;;6.87;98.11;99874.47;5094826;28;20198;-64
2022/11/29 01:01:20;;;;;;;6.20;5.73;;;;;;;6.86;98.77;99881.56;5075398;28;20198;-63
2022/11/29 01:03:46;;;;;;;6.70;6.20;;;;;;;6.87;98.34;99882.38;5074136;28;20199;-63
2022/11/29 01:06:15;;;;;;;6.53;6.10;;;;;;;6.92;98.24;99885.38;5073777;28;20188;-63
2022/11/29 01:08:44;;;;;;;7.13;6.63;;;;;;;6.94;98.02;99878.94;5074238;28;20720;-63
2022/11/29 01:11:12;;;;;;;6.93;6.43;;;;;;;6.94;97.96;99867.56;5074250;28;20201;-63
2022/11/29 01:13:40;;;;;;;6.90;6.40;;;;;;;6.94;96.71;99872.84;5074746;28;20188;-63
2022/11/29 01:16:08;;;;;;;7.33;6.73;;;;;;;6.90;98.00;99872.31;5074237;28;20249;-62
2022/11/29 01:18:36;;;;;;;8.40;7.60;;;;;;;6.88;98.44;99868.19;5074678;28;20239;-63
2022/11/29 01:21:06;;;;;;;7.70;7.10;;;;;;;6.81;98.70;99867.22;5074397;28;20249;-63
2022/11/29 01:23:35;;;;;;;8.77;8.17;;;;;;;6.81;98.23;99852.19;5074566;28;20184;-64
2022/11/29 01:26:05;;;;;;;8.90;8.03;;;;;;;6.76;98.80;99858.94;5073851;28;20253;-64
2022/11/29 01:28:31;;;;;;;9.57;8.67;;;;;;;6.78;100.00;99860.41;5073832;28;20230;-63
2022/11/29 01:30:58;;;;;;;9.73;8.93;;;;;;;6.74;100.00;99853.00;5088509;28;20203;-64
2022/11/29 01:33:26;;;;;;;9.67;8.90;;;;;;;6.69;100.00;99853.47;5094225;28;20313;-64
2022/11/29 01:35:54;;;;;;;10.17;9.27;;;;;;;6.67;100.00;99852.00;5094655;28;20252;-63
2022/11/29 01:38:22;;;;;;;10.40;9.47;;;;;;;6.68;100.00;99851.84;5093978;28;20728;-63
2022/11/29 01:40:58;;;;;;;10.53;9.53;;;;;;;6.68;100.00;99851.84;5093953;28;20197;-63
2022/11/29 01:43:24;;;;;;;10.80;9.80;;;;;;;6.67;100.00;99855.47;5094749;28;20364;-63
2022/11/29 01:45:51;;;;;;;12.80;11.50;;;;;;;6.67;100.00;99858.13;5093878;28;20195;-63
2022/11/29 01:48:22;;;;;;;11.60;10.50;;;;;;;6.64;100.00;99854.94;5094059;28;20281;-63
2022/11/29 01:50:50;;;;;;;11.97;10.87;;;;;;;6.63;100.00;99854.16;5093946;28;20187;-63
2022/11/29 01:53:18;;;;;;;11.63;10.53;;;;;;;6.63;100.00;99853.31;5094219;28;20190;-62
2022/11/29 01:55:51;;;;;;;12.13;11.00;;;;;;;6.68;100.00;99858.91;5093746;28;20665;-62
2022/11/29 01:58:18;;;;;;;12.97;11.53;;;;;;;6.68;100.00;99851.00;5093577;28;20718;-62
2022/11/29 02:00:45;;;;;;;13.60;12.20;;;;;;;6.73;100.00;99846.09;5093634;28;20193;-62
2022/11/29 02:03:14;;;;;;;14.13;11.83;;;;;;;6.73;100.00;99844.25;5093469;28;20249;-62
2022/11/29 02:05:44;;;;;;;14.97;12.07;;;;;;;6.71;100.00;99838.31;5093605;28;20195;-62
2022/11/29 02:08:15;;;;;;;15.77;12.07;;;;;;;6.68;100.00;99836.00;5074053;28;20291;-63
2022/11/29 02:10:56;;;;;;;14.80;13.27;;;;;;;6.69;100.00;99842.13;5074186;28;20260;-63
2022/11/29 02:13:32;;;;;;;15.00;13.50;;;;;;;6.64;100.00;99834.69;5072985;28;20728;-62
2022/11/29 02:16:06;;;;;;;15.27;13.17;;;;;;;6.60;100.00;99837.78;5073317;28;20192;-62
2022/11/29 02:18:46;;;;;;;17.43;13.40;;;;;;;6.64;100.00;99841.75;5073477;28;20282;-63
2022/11/29 02:21:39;;;;;;;14.63;13.03;;;;;;;6.65;100.00;99840.78;5073098;28;20641;-63
2022/11/29 02:24:40;;;;;;;14.43;13.00;;;;;;;6.54;100.00;99839.28;5073197;28;20271;-63
2022/11/29 02:27:48;;;;;;;13.50;12.17;;;;;;;6.61;100.00;99847.38;5072886;28;20183;-61
2022/11/29 02:30:21;;;;;;;14.43;12.80;;;;;;;6.60;100.00;99848.34;5080947;28;20176;-63
2022/11/29 02:33:38;;;;;;;14.27;12.17;;;;;;;6.57;100.00;99848.69;5093332;28;20388;-62
2022/11/29 02:36:36;;;;;;;13.87;12.37;;;;;;;6.48;100.00;99854.91;5089223;28;20242;-62
2022/11/29 02:39:33;;;;;;;14.37;12.83;;;;;;;6.41;100.00;99859.19;5093064;28;20191;-62
2022/11/29 02:42:20;;;;;;;14.27;12.77;;;;;;;6.36;100.00;99853.59;5086247;28;20193;-63
2022/11/29 02:44:57;;;;;;;16.13;12.60;;;;;;;6.31;100.00;99861.13;5093070;28;20241;-63
2022/11/29 02:47:32;;;;;;;14.63;12.63;;;;;;;6.24;100.00;99857.50;5093421;28;20311;-63
2022/11/29 02:50:19;;;;;;;16.97;13.50;;;;;;;6.10;100.00;99855.44;5093385;28;20210;-63
2022/11/29 02:52:56;;;;;;;15.80;13.50;;;;;;;6.05;100.00;99852.47;5092750;28;20642;-63
2022/11/29 02:55:33;;;;;;;19.17;14.37;;;;;;;6.07;100.00;99858.41;5092553;28;20180;-62
2022/11/29 02:58:09;;;;;;;17.53;14.00;;;;;;;6.07;100.00;99855.75;5092620;28;20179;-63
2022/11/29 03:00:41;;;;;;;16.30;13.43;;;;;;;6.00;100.00;99855.56;5092864;28;20218;-63
2022/11/29 03:03:18;;;;;;;17.43;13.97;;;;;;;6.03;100.00;99854.44;5093221;28;20181;-63
2022/11/29 03:05:53;;;;;;;15.47;12.97;;;;;;;5.99;100.00;99850.44;5092761;28;20222;-63
2022/11/29 03:08:28;;;;;;;18.50;13.70;;;;;;;5.96;100.00;99842.88;5072352;28;20207;-63
2022/11/29 03:11:02;;;;;;;17.83;14.77;;;;;;;5.95;100.00;99857.06;5073053;28;20189;-63
2022/11/29 03:13:45;;;;;;;21.13;15.10;;;;;;;5.96;100.00;99854.25;5072483;28;20192;-63
2022/11/29 03:16:27;;;;;;;21.60;14.97;;;;;;;5.96;100.00;99851.59;5072337;28;20208;-62
2022/11/29 03:19:05;;;;;;;16.37;14.40;;;;;;;5.89;100.00;99853.25;5071846;28;20231;-64
2022/11/29 03:21:41;;;;;;;19.50;15.27;;;;;;;5.97;100.00;99847.16;5071965;28;20221;-62
2022/11/29 03:24:15;;;;;;;17.30;14.47;;;;;;;6.00;100.00;99845.03;5071874;28;20743;-62
2022/11/29 03:26:45;;;;;;;16.43;13.53;;;;;;;6.04;100.00;99850.81;5071887;28;20180;-64
2022/11/29 03:29:21;;;;;;;17.33;14.70;;;;;;;6.01;100.00;99845.88;5071506;28;20224;-63
2022/11/29 03:31:54;;;;;;;17.83;12.77;;;;;;;5.92;100.00;99852.09;5071673;28;20187;-63
2022/11/29 03:34:28;;;;;;;17.10;13.40;;;;;;;5.94;100.00;99845.66;5072219;28;20184;-63
2022/11/29 03:37:02;;;;;;;15.30;13.57;;;;;;;5.99;100.00;99847.81;5072270;28;20184;-63
2022/11/29 03:39:38;;;;;;;17.00;12.43;;;;;;;5.96;100.00;99838.41;5072209;28;20593;-63
2022/11/29 03:42:10;;;;;;;17.13;13.60;;;;;;;5.95;100.00;99828.88;5071905;28;20237;-65
2022/11/29 03:44:44;;;;;;;16.03;13.40;;;;;;;6.05;100.00;99841.94;5072127;28;20189;-64
2022/11/29 03:47:15;;;;;;;17.43;13.43;;;;;;;6.08;100.00;99838.97;5072870;28;20273;-63
2022/11/29 03:49:48;;;;;;;16.03;13.47;;;;;;;6.16;100.00;99839.81;5071737;28;20211;-65
2022/11/29 03:52:19;;;;;;;17.47;13.37;;;;;;;6.22;100.00;99844.47;5071911;28;20185;-64
2022/11/29 03:54:57;;;;;;;15.53;13.93;;;;;;;6.25;100.00;99848.59;5071555;28;20645;-64
2022/11/29 03:57:31;;;;;;;17.40;13.63;;;;;;;6.25;100.00;99852.03;5071714;28;20237;-61
2022/11/29 04:00:04;;;;;;;16.20;13.67;;;;;;;6.18;100.00;99858.97;5072112;28;20193;-62
2022/11/29 04:03:11;;;;;;;15.63;13.83;;;;;;;6.18;100.00;99855.50;5071906;28;20223;-63
2022/11/29 04:05:57;;;;;;;17.90;13.77;;;;;;;6.26;100.00;99856.34;5071898;28;20188;-62
2022/11/29 04:08:57;;;;;;;16.33;14.07;;;;;;;6.29;100.00;99860.47;5071170;28;20768;-63
2022/11/29 04:11:54;;;;;;;17.43;14.20;;;;;;;6.28;100.00;99858.84;5067861;28;20725;-63
2022/11/29 04:15:05;;;;;;;17.23;13.73;;;;;;;6.26;100.00;99866.91;5071684;28;20282;-63
2022/11/29 04:18:20;;;;;;;18.10;13.60;;;;;;;6.20;100.00;99866.72;5042482;28;20255;-62
2022/11/29 04:21:06;;;;;;;19.43;14.00;;;;;;;6.06;100.00;99852.31;5029406;28;20186;-63
2022/11/29 04:23:57;;;;;;;16.80;13.60;;;;;;;6.00;100.00;99860.03;5071378;28;20278;-63
2022/11/29 04:26:59;;;;;;;18.47;13.80;;;;;;;6.03;100.00;99859.69;5074057;28;20184;-63
2022/11/29 04:29:45;;;;;;;18.77;14.70;;;;;;;5.99;100.00;99853.94;5073183;28;20216;-64
2022/11/29 04:32:33;;;;;;;17.47;13.90;;;;;;;6.03;100.00;99859.69;5091902;28;20181;-64
2022/11/29 04:35:18;;;;;;;20.37;15.23;;;;;;;6.03;100.00;99865.81;5081110;28;20624;-62
2022/11/29 04:38:04;;;;;;;22.87;16.80;;;;;;;6.09;100.00;99864.34;5072194;28;20188;-63
2022/11/29 04:40:55;;;;;;;19.23;15.77;;;;;;;6.15;100.00;99863.72;5074863;28;20253;-63
2022/11/29 04:43:45;;;;;;;21.90;16.50;;;;;;;6.16;100.00;99862.75;5087473;28;20601;-63
2022/11/29 04:46:48;;;;;;;22.53;16.13;;;;;;;6.30;100.00;99862.13;5095196;28;20191;-63
2022/11/29 04:49:42;;;;;;;22.10;16.33;;;;;;;6.41;100.00;99848.66;5066386;28;20216;-63
2022/11/29 04:52:39;;;;;;;20.50;16.13;;;;;;;6.47;100.00;99864.66;5066102;28;20191;-63
2022/11/29 04:55:19;;;;;;;25.13;18.13;;;;;;;6.51;100.00;99871.28;5072535;28;20725;-63
2022/11/29 04:57:51;;;;;;;25.33;17.87;;;;;;;6.55;100.00;99872.59;5073900;28;20190;-63
2022/11/29 05:00:20;;;;;;;23.57;17.13;;;;;;;6.58;100.00;99876.72;5073946;28;20676;-63
2022/11/29 05:02:54;;;;;;;21.47;16.70;;;;;;;6.57;100.00;99870.63;5074697;28;20192;-63
2022/11/29 05:05:33;;;;;;;32.90;21.43;;;;;;;6.60;100.00;99880.00;5074625;28;20184;-62
2022/11/29 05:08:16;;;;;;;29.67;21.03;;;;;;;6.63;100.00;99879.69;5092938;28;20236;-63
2022/11/29 05:10:52;;;;;;;27.53;20.17;;;;;;;6.67;100.00;99879.22;5094642;28;20224;-64
2022/11/29 05:13:28;;;;;;;25.07;17.73;;;;;;;6.75;100.00;99878.41;5095831;28;20194;-62
2022/11/29 05:16:18;;;;;;;26.03;18.07;;;;;;;6.87;100.00;99885.03;5095135;28;20258;-64
2022/11/29 05:19:24;;;;;;;25.77;18.97;;;;;;;7.03;100.00;99883.25;5095401;28;20288;-64
2022/11/29 05:22:02;;;;;;;25.50;17.90;;;;;;;7.02;100.00;99888.69;5094204;28;20267;-64
2022/11/29 05:24:43;;;;;;;29.03;19.20;;;;;;;7.07;100.00;99887.19;5094052;28;20209;-64
2022/11/29 05:27:18;;;;;;;28.73;19.67;;;;;;;7.09;100.00;99892.31;5093683;28;20189;-64
2022/11/29 05:29:55;;;;;;;32.57;19.57;;;;;;;7.02;100.00;99897.41;5089436;28;20207;-64
2022/11/29 05:32:29;;;;;;;27.83;19.43;;;;;;;7.00;100.00;99895.94;5073729;28;20273;-66
2022/11/29 05:35:38;;;;;;;31.83;20.27;;;;;;;6.98;100.00;99896.09;5073945;28;20188;-64
2022/11/29 05:38:16;;;;;;;31.60;20.37;;;;;;;6.85;100.00;99900.19;5044416;28;20188;-67
2022/11/29 05:40:53;;;;;;;30.00;19.67;;;;;;;6.73;100.00;99904.16;5073509;28;20194;-68
2022/11/29 05:43:43;;;;;;;34.97;21.27;;;;;;;6.65;100.00;99914.69;5067814;28;20194;-68
2022/11/29 05:46:18;;;;;;;31.27;19.93;;;;;;;6.58;100.00;99916.31;5093371;28;20198;-66
2022/11/29 05:48:54;;;;;;;35.30;21.83;;;;;;;6.55;100.00;99914.81;5092757;28;20188;-68
2022/11/29 05:51:27;;;;;;;35.70;22.73;;;;;;;6.55;100.00;99914.81;5090211;28;20243;-69
2022/11/29 05:54:04;;;;;;;35.47;22.50;;;;;;;6.57;100.00;99912.03;5076286;28;20260;-68
2022/11/29 05:56:47;;;;;;;37.50;23.03;;;;;;;6.63;100.00;99908.72;5069879;28;20247;-69
2022/11/29 05:59:18;;;;;;;33.07;21.67;;;;;;;6.88;100.00;99908.63;5068524;28;20583;-67
2022/11/29 06:01:52;;;;;;;41.47;25.33;;;;;;;6.92;100.00;99917.88;5078926;28;20192;-69
2022/11/29 06:04:23;;;;;;;39.27;24.93;;;;;;;6.90;100.00;99913.75;5072550;28;20249;-71
2022/11/29 06:06:58;;;;;;;45.20;28.87;;;;;;;6.91;100.00;99910.13;5079524;28;20187;-68
2022/11/29 06:09:30;;;;;;;57.00;34.07;;;;;;;6.93;100.00;99908.13;5073911;28;20202;-69
2022/11/29 06:12:04;;;;;;;54.07;36.73;;;;;;;6.93;100.00;99908.97;5071749;28;20272;-71
2022/11/29 06:14:52;;;;;;;69.77;47.10;;;;;;;6.94;100.00;99912.44;5080219;28;20195;-68
2022/11/29 06:17:39;;;;;;;88.67;59.43;;;;;;;6.99;100.00;99902.22;5081019;28;20223;-68
2022/11/29 06:20:34;;;;;;;79.20;51.90;;;;;;;7.18;100.00;99912.47;5071981;28;20229;-67
2022/11/29 06:23:17;;;;;;;59.57;38.13;;;;;;;7.11;100.00;99922.03;5081411;28;20184;-65
2022/11/29 06:26:00;;;;;;;45.27;30.87;;;;;;;7.10;100.00;99915.13;5081674;28;20194;-68
2022/11/29 06:28:41;;;;;;;43.17;26.73;;;;;;;7.05;100.00;99912.13;5075495;28;20638;-66
2022/11/29 06:31:16;;;;;;;40.10;24.90;;;;;;;7.06;100.00;99916.44;5075774;28;20249;-68
2022/11/29 06:33:48;;;;;;;40.23;25.10;;;;;;;7.00;100.00;99909.13;5073465;28;20178;-67
2022/11/29 06:36:18;;;;;;;40.77;26.20;;;;;;;7.08;100.00;99917.06;5084810;28;20192;-67
2022/11/29 06:38:47;;;;;;;41.47;25.83;;;;;;;7.12;100.00;99902.56;5080192;28;20286;-69
2022/11/29 06:41:21;;;;;;;40.73;25.40;;;;;;;7.15;100.00;99907.50;5094437;28;20187;-69
2022/11/29 06:43:49;;;;;;;36.27;24.40;;;;;;;7.15;100.00;99907.50;5075061;28;20182;-67
2022/11/29 06:46:24;;;;;;;38.47;24.00;;;;;;;7.11;100.00;99906.19;5091880;28;20207;-67
2022/11/29 06:48:56;;;;;;;42.97;24.70;;;;;;;7.10;100.00;99901.91;5090330;28;20190;-67
2022/11/29 06:51:31;;;;;;;38.37;25.30;;;;;;;7.12;100.00;99907.84;5077882;28;20231;-65
2022/11/29 06:54:10;;;;;;;43.23;26.10;;;;;;;7.20;100.00;99910.47;5082201;28;20235;-67
2022/11/29 06:56:43;;;;;;;60.10;33.00;;;;;;;7.27;100.00;99906.22;5090254;28;20868;-65
2022/11/29 06:59:26;;;;;;;68.67;42.87;;;;;;;7.27;100.00;99898.28;5091637;28;20195;-66
2022/11/29 07:01:59;;;;;;;58.83;40.47;;;;;;;7.33;100.00;99908.16;5090234;28;20212;-65
2022/11/29 07:04:50;;;;;;;50.63;33.10;;;;;;;7.39;100.00;99910.16;5091177;28;20191;-67
2022/11/29 07:07:21;;;;;;;42.50;27.73;;;;;;;7.48;100.00;99903.88;5080135;28;20187;-66
2022/11/29 07:09:49;;;;;;;41.47;26.27;;;;;;;7.55;100.00;99904.88;5071032;28;20242;-68
2022/11/29 07:12:18;;;;;;;44.17;25.77;;;;;;;7.56;100.00;99906.53;5081303;28;20245;-69
2022/11/29 07:14:46;;;;;;;40.70;25.63;;;;;;;7.64;100.00;99911.81;5090983;28;20577;-67
2022/11/29 07:17:20;;;;;;;43.17;25.60;;;;;;;7.64;100.00;99904.69;5087221;28;20190;-68
2022/11/29 07:19:58;;;;;;;36.23;24.10;;;;;;;7.68;100.00;99915.75;5081421;28;20187;-67
2022/11/29 07:22:42;;;;;;;35.57;21.67;;;;;;;7.74;100.00;99909.78;5074080;28;20184;-66
2022/11/29 07:25:21;;;;;;;34.47;20.80;;;;;;;7.64;100.00;99882.72;5074456;28;20180;-68
2022/11/29 07:27:57;;;;;;;28.23;19.00;;;;;;;7.86;100.00;99913.75;5090258;28;20190;-67
2022/11/29 07:30:30;;;;;;;32.07;21.37;;;;;;;7.92;99.68;99913.06;5091725;28;20226;-67
2022/11/29 07:33:05;;;;;;;28.77;21.73;;;;;;;7.97;99.90;99916.84;5092280;28;20244;-71
2022/11/29 07:35:37;;;;;;;28.67;20.60;;;;;;;7.98;98.86;99907.94;5072566;28;20182;-65
2022/11/29 07:38:14;;;;;;;29.90;20.10;;;;;;;8.00;97.93;99910.41;5071448;28;20252;-67
2022/11/29 07:40:45;;;;;;;24.93;18.57;;;;;;;7.99;97.45;99914.03;5085827;28;20195;-67
2022/11/29 07:43:28;;;;;;;29.80;18.73;;;;;;;7.97;97.55;99910.75;5077999;28;20180;-67
2022/11/29 07:45:56;;;;;;;26.70;19.87;;;;;;;8.05;98.68;99913.38;5091945;28;20229;-66
2022/11/29 07:48:23;;;;;;;28.00;19.00;;;;;;;8.08;97.54;99915.69;5092254;28;20188;-68
2022/11/29 07:50:49;;;;;;;28.37;20.23;;;;;;;8.02;96.70;99913.69;5091821;28;20239;-69
2022/11/29 07:53:17;;;;;;;28.90;17.77;;;;;;;7.91;97.84;99914.06;5091852;28;20695;-68
2022/11/29 07:55:45;;;;;;;35.00;21.57;;;;;;;7.93;98.32;99909.44;5092425;28;20245;-69
2022/11/29 07:58:12;;;;;;;56.77;30.63;;;;;;;7.91;98.82;99911.41;5091617;28;20682;-66
2022/11/29 08:00:41;;;;;;;45.93;27.43;;;;;;;7.82;97.82;99907.13;5083575;28;20282;-69
2022/11/29 08:03:08;;;;;;;38.97;25.20;;;;;;;7.84;97.05;99905.97;5070732;28;20759;-66
2022/11/29 08:05:36;;;;;;;66.03;37.07;;;;;;;7.78;96.73;99906.66;5070785;28;20195;-68
2022/11/29 08:08:03;;;;;;;81.00;40.43;;;;;;;7.79;97.88;99910.09;5071553;28;20642;-71
2022/11/29 08:10:31;;;;;;;51.70;27.63;;;;;;;7.80;98.06;99925.81;5071400;28;20265;-69
2022/11/29 08:12:58;;;;;;;35.77;23.73;;;;;;;7.77;97.66;99914.75;5071876;28;20668;-67
2022/11/29 08:15:25;;;;;;;43.73;24.33;;;;;;;7.76;97.75;99919.19;5095208;28;20581;-66
2022/11/29 08:17:53;;;;;;;35.93;21.77;;;;;;;7.62;97.73;99916.41;5094341;28;20262;-66
2022/11/29 08:20:20;;;;;;;38.20;22.33;;;;;;;7.63;99.64;99908.31;5094873;28;20666;-66
2022/11/29 08:22:54;;;;;;;31.93;20.67;;;;;;;7.69;99.12;99914.75;5095213;28;20194;-67
2022/11/29 08:25:21;;;;;;;42.80;25.07;;;;;;;7.62;98.27;99916.41;5095893;28;20193;-67
2022/11/29 08:27:48;;;;;;;46.47;25.67;;;;;;;7.58;98.95;99915.94;5095671;28;20198;-68
2022/11/29 08:30:17;;;;;;;34.63;21.53;;;;;;;7.61;98.74;99920.06;5086355;28;20691;-68
2022/11/29 08:32:44;;;;;;;21.27;16.00;;;;;;;7.56;98.92;99911.81;5074836;28;20281;-67
2022/11/29 08:35:12;;;;;;;20.70;15.73;;;;;;;7.61;99.27;99914.78;5074052;28;20253;-68
2022/11/29 08:37:39;;;;;;;15.13;12.70;;;;;;;7.59;99.86;99914.13;5074456;28;20200;-68
2022/11/29 08:40:07;;;;;;;17.33;13.40;;;;;;;7.75;100.00;99906.97;5079846;28;20663;-69
2022/11/29 08:42:33;;;;;;;18.60;14.53;;;;;;;7.80;99.52;99909.13;5095376;28;20627;-68
2022/11/29 08:45:00;;;;;;;21.27;14.57;;;;;;;7.88;98.86;99906.47;5095364;28;20191;-66
2022/11/29 08:47:35;;;;;;;27.37;18.87;;;;;;;7.92;98.65;99908.59;5095282;28;20187;-67
2022/11/29 08:50:02;;;;;;;22.17;16.17;;;;;;;7.99;99.27;99908.75;5094768;28;20265;-67
2022/11/29 08:55:16;;;;;;;20.70;16.27;;;;;;;7.96;98.18;99906.47;5095062;28;20639;-68
2022/11/29 08:57:43;;;;;;;21.33;14.87;;;;;;;7.95;97.70;99897.69;5095803;28;20252;-67
2022/11/29 09:00:11;;;;;;;22.53;17.03;;;;;;;7.96;99.13;99898.53;5090813;28;20192;-67
2022/11/29 09:02:38;;;;;;;22.80;16.60;;;;;;;8.05;99.42;99889.56;5074880;28;20241;-68
2022/11/29 09:05:06;;;;;;;22.53;16.37;;;;;;;8.12;98.96;99886.06;5073944;28;20226;-67
2022/11/29 09:07:34;;;;;;;20.50;14.97;;;;;;;8.16;98.54;99890.00;5080950;28;20659;-67
2022/11/29 09:10:03;;;;;;;12.47;11.23;;;;;;;8.13;98.62;99890.34;5073295;28;20223;-65
2022/11/29 09:12:31;;;;;;;13.60;11.10;;;;;;;8.20;97.69;99875.44;5071958;28;20249;-67
2022/11/29 09:14:57;;;;;;;15.83;12.10;;;;;;;8.33;97.61;99874.94;5084170;28;20226;-67
2022/11/29 09:17:24;;;;;;;14.97;12.43;;;;;;;8.49;98.17;99874.88;5092914;28;20264;-67
2022/11/29 09:19:51;;;;;;;15.90;12.77;;;;;;;8.55;97.06;99880.28;5094011;28;20192;-68
2022/11/29 09:22:17;;;;;;;12.57;11.27;;;;;;;8.64;95.62;99878.41;5093764;28;20651;-66
2022/11/29 09:24:45;;;;;;;14.57;11.33;;;;;;;8.71;94.69;99876.72;5094405;28;20268;-65
2022/11/29 09:27:17;;;;;;;17.47;10.97;;;;;;;8.81;95.30;99864.91;5091922;28;20191;-66
2022/11/29 09:29:46;;;;;;;10.97;9.87;;;;;;;8.92;94.35;99867.16;5087978;28;20184;-65
2022/11/29 09:32:12;;;;;;;11.57;10.37;;;;;;;8.88;94.54;99843.81;5070864;28;20642;-67
2022/11/29 09:34:43;;;;;;;10.90;9.80;;;;;;;9.13;94.43;99855.88;5093150;28;20191;-66
2022/11/29 09:37:13;;;;;;;23.23;16.57;;;;;;;9.20;92.43;99854.97;5092359;28;20191;-65
2022/11/29 09:39:53;;;;;;;11.97;10.47;;;;;;;9.26;92.48;99850.78;5093994;28;20198;-65
2022/11/29 09:42:52;;;;;;;12.03;10.03;;;;;;;9.38;92.13;99846.72;5093882;28;20201;-67
2022/11/29 09:45:32;;;;;;;16.33;13.63;;;;;;;9.30;91.46;99844.13;5092168;28;20565;-65
2022/11/29 09:48:39;;;;;;;19.37;15.17;;;;;;;9.24;93.08;99835.06;5072326;28;20198;-68
2022/11/29 09:51:17;;;;;;;12.83;11.53;;;;;;;9.35;93.42;99841.78;5091508;28;20305;-66
2022/11/29 09:53:58;;;;;;;13.27;10.30;;;;;;;9.40;91.32;99844.72;5091319;28;20297;-66
2022/11/29 09:56:31;;;;;;;10.97;9.93;;;;;;;9.30;91.40;99849.44;5093292;28;20182;-66
2022/11/29 09:59:00;;;;;;;9.83;8.93;;;;;;;9.23;90.86;99849.34;5091730;28;20315;-68
2022/11/29 10:01:31;;;;;;;11.50;10.30;;;;;;;9.23;91.95;99843.22;5092052;28;20238;-68
2022/11/29 10:04:02;;;;;;;10.77;9.77;;;;;;;9.19;92.55;99841.94;5093316;28;20184;-69
2022/11/29 10:06:35;;;;;;;16.93;9.73;;;;;;;9.14;92.22;99845.09;5087820;28;20230;-67
2022/11/29 10:09:05;;;;;;;8.93;8.07;;;;;;;9.10;92.72;99838.50;5090448;28;20222;-67
2022/11/29 10:11:40;;;;;;;9.57;8.67;;;;;;;9.22;93.50;99836.25;5093307;28;20222;-67
2022/11/29 10:14:14;;;;;;;11.30;8.50;;;;;;;9.37;92.28;99840.59;5092842;28;20183;-66
2022/11/29 10:16:46;;;;;;;11.57;10.00;;;;;;;9.41;92.38;99836.59;5093436;28;20186;-67
2022/11/29 10:19:21;;;;;;;9.73;8.67;;;;;;;9.42;91.88;99837.41;5092699;28;20278;-66
2022/11/29 10:22:00;;;;;;;10.63;8.07;;;;;;;9.44;92.11;99830.09;5093300;28;20273;-66
2022/11/29 10:24:28;;;;;;;11.87;8.70;;;;;;;9.31;91.63;99837.84;5093087;28;20187;-69
2022/11/29 10:26:56;;;;;;;8.73;7.40;;;;;;;9.20;92.27;99831.13;5089232;28;20270;-66
2022/11/29 10:29:23;;;;;;;7.53;6.83;;;;;;;9.14;92.23;99829.22;5092785;28;20248;-65
2022/11/29 10:31:53;;;;;;;7.60;7.00;;;;;;;9.13;92.98;99822.25;5072814;28;20224;-67
2022/11/29 10:34:22;;;;;;;8.83;7.93;;;;;;;9.22;92.95;99828.31;5072138;28;20192;-67
2022/11/29 10:36:51;;;;;;;7.97;7.33;;;;;;;9.30;92.83;99820.28;5071982;28;20717;-66
2022/11/29 10:39:22;;;;;;;8.90;8.10;;;;;;;9.40;91.26;99834.13;5071539;28;20191;-66
2022/11/29 10:41:54;;;;;;;8.53;7.70;;;;;;;9.47;91.00;99829.72;5082473;28;20252;-66
2022/11/29 10:44:24;;;;;;;7.77;7.07;;;;;;;9.48;92.68;99826.09;5090399;28;20191;-66
2022/11/29 10:46:51;;;;;;;10.23;8.40;;;;;;;9.56;92.32;99833.97;5090713;28;20221;-66
2022/11/29 10:49:22;;;;;;;9.87;8.63;;;;;;;9.51;92.01;99823.06;5088516;28;20225;-66
2022/11/29 10:51:48;;;;;;;7.63;6.83;;;;;;;9.38;92.28;99821.03;5070930;28;20208;-67
2022/11/29 10:54:38;;;;;;;9.93;8.47;;;;;;;9.28;92.30;99819.66;5071346;28;20195;-66
2022/11/29 10:57:12;;;;;;;8.93;7.90;;;;;;;9.21;92.84;99811.59;5071706;28;20184;-66
2022/11/29 10:59:41;;;;;;;9.30;8.47;;;;;;;9.31;94.25;99811.34;5071387;28;20186;-67
2022/11/29 11:02:18;;;;;;;9.80;8.07;;;;;;;9.31;93.49;99811.34;5072277;28;20195;-66
2022/11/29 11:04:46;;;;;;;9.60;8.63;;;;;;;9.24;93.22;99808.56;5072339;28;20682;-67
2022/11/29 11:07:23;;;;;;;11.33;9.60;;;;;;;9.34;93.23;99803.00;5082867;28;20245;-66
2022/11/29 11:09:53;;;;;;;10.90;9.77;;;;;;;9.39;94.21;99808.63;5072798;28;20188;-67
2022/11/29 11:12:22;;;;;;;9.23;8.43;;;;;;;9.44;94.23;99806.25;5072041;28;20219;-66
2022/11/29 11:14:51;;;;;;;9.53;8.40;;;;;;;9.57;93.06;99804.63;5071665;28;20198;-66
2022/11/29 11:17:24;;;;;;;7.67;7.07;;;;;;;9.56;92.21;99796.84;5075817;28;20306;-65
2022/11/29 11:19:57;;;;;;;7.03;6.53;;;;;;;9.62;91.41;99804.06;5091761;28;20190;-67
2022/11/29 11:22:25;;;;;;;7.80;7.00;;;;;;;9.39;91.57;99784.75;5092213;28;20199;-66
2022/11/29 11:24:59;;;;;;;7.77;6.17;;;;;;;9.49;91.94;99791.44;5088106;28;20245;-66
2022/11/29 11:27:34;;;;;;;6.73;6.30;;;;;;;9.41;91.96;99793.34;5071450;28;20271;-65
2022/11/29 11:30:04;;;;;;;8.27;7.57;;;;;;;9.56;92.66;99802.16;5077433;28;20186;-65
2022/11/29 11:32:30;;;;;;;9.17;8.20;;;;;;;9.55;92.20;99800.47;5087626;28;20645;-66
2022/11/29 11:34:59;;;;;;;8.33;7.63;;;;;;;9.52;93.29;99800.84;5073324;28;20196;-66
2022/11/29 11:37:27;;;;;;;8.60;7.67;;;;;;;9.60;93.66;99798.13;5069288;28;20663;-66
2022/11/29 11:39:56;;;;;;;11.07;10.03;;;;;;;9.56;92.32;99795.00;5070715;28;20685;-66
2022/11/29 11:42:36;;;;;;;8.53;7.70;;;;;;;9.46;92.29;99791.78;5084761;28;20238;-66
2022/11/29 11:45:22;;;;;;;8.87;7.97;;;;;;;9.34;91.74;99792.41;5091754;28;20237;-66
2022/11/29 11:47:51;;;;;;;9.03;8.33;;;;;;;9.32;93.53;99789.94;5092262;28;20270;-66
2022/11/29 11:50:28;;;;;;;13.20;11.30;;;;;;;9.35;93.51;99786.13;5098209;28;20191;-66
2022/11/29 11:52:56;;;;;;;17.03;11.90;;;;;;;9.35;93.23;99786.94;5098049;28;20183;-66
2022/11/29 11:55:30;;;;;;;14.53;11.17;;;;;;;9.31;93.48;99782.19;5097533;28;20210;-66
2022/11/29 11:58:02;;;;;;;11.23;9.87;;;;;;;9.40;93.57;99797.00;5098299;28;20797;-66
2022/11/29 12:00:41;;;;;;;13.07;10.40;;;;;;;9.30;93.70;99793.78;5096312;28;20191;-66
2022/11/29 12:03:24;;;;;;;23.90;13.00;;;;;;;9.29;94.27;99787.66;5098663;28;20244;-65
2022/11/29 12:05:54;;;;;;;10.53;9.37;;;;;;;9.24;94.40;99791.84;5097592;28;20186;-66